Time;durP1;ratioP1;P1;durP2;ratioP2;P2;SDS_P1;SDS_P2;PMS_P1;PMS_P2;Temp;Humidity;BMP_temperature;BMP_pressure;BME280_temperature;BME280_humidity;BME280_pressure;Samples;Min_cycle;Max_cycle;Signal;HPM_P1;HPM_P2
2024/03/16 00:00:47;;;;;;;24.50;15.50;;;;;;;7.06;74.12;100061.25;5059007;28;20288;-66
2024/03/16 00:03:15;;;;;;;23.77;15.80;;;;;;;7.03;74.20;100054.41;5061514;28;20772;-67
2024/03/16 00:05:43;;;;;;;26.53;16.50;;;;;;;7.02;74.88;100058.69;5061587;28;20203;-66
2024/03/16 00:08:11;;;;;;;24.37;16.23;;;;;;;7.04;73.71;100056.16;5049691;28;20202;-67
2024/03/16 00:10:39;;;;;;;23.47;14.90;;;;;;;7.01;74.51;100053.56;5054006;28;20219;-66
2024/03/16 00:13:07;;;;;;;23.97;15.20;;;;;;;6.98;75.03;100048.44;5062504;28;20542;-67
2024/03/16 00:15:35;;;;;;;25.77;16.23;;;;;;;6.97;73.91;100046.72;5053273;28;20295;-66
2024/03/16 00:18:04;;;;;;;23.90;16.27;;;;;;;6.93;75.07;100040.75;5057307;28;20300;-65
2024/03/16 00:20:32;;;;;;;25.33;15.90;;;;;;;6.92;74.96;100049.28;5065110;28;20210;-66
2024/03/16 00:23:01;;;;;;;23.43;15.63;;;;;;;6.92;75.53;100043.28;5057685;28;20204;-65
2024/03/16 00:25:29;;;;;;;26.10;15.47;;;;;;;6.91;75.18;100036.47;5070618;28;20232;-65
2024/03/16 00:27:57;;;;;;;23.30;15.57;;;;;;;6.90;75.32;100034.75;5065027;28;20204;-67
2024/03/16 00:30:25;;;;;;;22.27;14.80;;;;;;;6.90;75.13;100034.75;5054432;28;20215;-67
2024/03/16 00:32:54;;;;;;;24.17;15.67;;;;;;;6.91;75.87;100036.47;5057236;28;20209;-65
2024/03/16 00:35:22;;;;;;;22.93;15.27;;;;;;;6.94;75.42;100039.03;5063228;28;20247;-68
2024/03/16 00:37:50;;;;;;;22.83;15.33;;;;;;;6.95;75.40;100038.19;5066052;28;20212;-66
2024/03/16 00:40:19;;;;;;;23.50;15.63;;;;;;;6.96;75.29;100032.22;5053436;28;20200;-66
2024/03/16 00:42:48;;;;;;;24.20;15.27;;;;;;;6.97;75.54;100021.97;5058635;28;20651;-66
2024/03/16 00:45:16;;;;;;;26.83;16.73;;;;;;;7.03;75.37;100033.91;5061669;28;20283;-67
2024/03/16 00:47:47;;;;;;;22.93;15.13;;;;;;;7.05;75.51;100029.66;5062541;28;20288;-65
2024/03/16 00:50:15;;;;;;;24.87;16.03;;;;;;;7.02;75.11;100025.38;5055478;28;20269;-67
2024/03/16 00:52:43;;;;;;;23.50;16.13;;;;;;;7.01;74.90;100022.84;5060082;28;20196;-67
2024/03/16 00:55:11;;;;;;;22.80;15.60;;;;;;;7.03;75.03;100021.13;5057113;28;20219;-66
2024/03/16 00:57:40;;;;;;;22.00;14.60;;;;;;;7.00;75.49;100021.13;5052461;28;20747;-66
2024/03/16 01:00:10;;;;;;;24.13;15.67;;;;;;;7.00;75.17;100024.53;5056521;28;20586;-66
2024/03/16 01:02:39;;;;;;;23.37;14.70;;;;;;;6.98;75.77;100017.69;5053730;28;20220;-66
2024/03/16 01:05:08;;;;;;;21.13;13.60;;;;;;;7.00;75.57;100016.84;5059793;28;20213;-67
2024/03/16 01:07:36;;;;;;;20.40;14.33;;;;;;;6.98;75.89;100010.84;5057076;28;20292;-66
2024/03/16 01:10:04;;;;;;;23.83;15.30;;;;;;;6.97;75.74;100010.88;5066479;28;20204;-66
2024/03/16 01:12:34;;;;;;;21.63;14.07;;;;;;;6.99;75.88;100011.72;5063347;28;20216;-67
2024/03/16 01:15:02;;;;;;;24.43;15.60;;;;;;;6.97;75.51;100001.47;5072262;28;20201;-66
2024/03/16 01:17:30;;;;;;;23.03;15.03;;;;;;;6.95;75.03;100002.31;5055873;28;20232;-65
2024/03/16 01:19:58;;;;;;;21.80;15.03;;;;;;;6.92;75.98;99997.19;5048789;28;20205;-67
2024/03/16 01:22:26;;;;;;;22.23;15.13;;;;;;;6.91;75.68;99995.47;5066168;28;20300;-68
2024/03/16 01:24:54;;;;;;;22.33;14.97;;;;;;;6.91;76.08;99992.91;5058371;28;20200;-67
2024/03/16 01:27:22;;;;;;;22.90;15.50;;;;;;;6.93;76.52;99988.66;5068273;28;20208;-66
2024/03/16 01:29:51;;;;;;;23.77;15.13;;;;;;;6.90;76.04;99992.06;5067087;28;20567;-67
2024/03/16 01:32:19;;;;;;;22.03;15.20;;;;;;;6.90;76.33;99986.94;5064290;28;20215;-66
2024/03/16 01:34:47;;;;;;;21.83;14.67;;;;;;;6.90;76.05;99978.41;5058813;28;20292;-67
2024/03/16 01:37:18;;;;;;;22.47;14.93;;;;;;;6.90;75.84;99988.66;5059498;28;20220;-66
2024/03/16 01:39:46;;;;;;;22.77;15.00;;;;;;;6.88;76.28;99969.84;5075858;28;20683;-65
2024/03/16 01:42:14;;;;;;;23.30;15.07;;;;;;;6.86;75.94;99972.41;5062927;28;20204;-66
2024/03/16 01:44:46;;;;;;;23.10;14.67;;;;;;;6.88;76.57;99975.81;5060918;28;20203;-66
2024/03/16 01:47:14;;;;;;;23.67;15.33;;;;;;;6.89;76.53;99981.81;5067076;28;20210;-65
2024/03/16 01:49:43;;;;;;;22.87;15.43;;;;;;;6.88;76.94;99974.97;5061964;28;20209;-69
2024/03/16 01:52:11;;;;;;;24.47;15.90;;;;;;;6.90;77.09;99980.97;5062415;28;20212;-66
2024/03/16 01:54:39;;;;;;;25.80;14.67;;;;;;;6.95;77.39;99981.81;5070151;28;20199;-67
2024/03/16 01:57:07;;;;;;;22.17;14.73;;;;;;;6.94;76.54;99975.84;5060141;28;20232;-67
2024/03/16 01:59:35;;;;;;;22.40;15.17;;;;;;;7.01;77.16;99981.84;5066296;28;20205;-67
2024/03/16 02:02:03;;;;;;;20.80;14.03;;;;;;;7.04;76.87;99978.44;5061728;28;20617;-66
2024/03/16 02:04:32;;;;;;;21.47;14.23;;;;;;;7.04;76.18;99979.28;5053807;28;20204;-68
2024/03/16 02:07:08;;;;;;;21.50;14.20;;;;;;;7.07;76.13;99980.97;5058278;28;20226;-67
2024/03/16 02:09:37;;;;;;;23.07;14.90;;;;;;;7.06;76.49;99980.13;5061336;28;20612;-65
2024/03/16 02:12:05;;;;;;;22.47;15.30;;;;;;;7.01;76.08;99977.56;5059083;28;20205;-66
2024/03/16 02:14:33;;;;;;;25.47;15.87;;;;;;;6.97;76.51;99977.56;5058572;28;20283;-65
2024/03/16 02:17:02;;;;;;;21.30;15.03;;;;;;;6.94;76.31;99977.56;5065668;28;20211;-66
2024/03/16 02:19:31;;;;;;;23.00;14.87;;;;;;;6.92;77.01;99976.69;5061183;28;20719;-66
2024/03/16 02:21:59;;;;;;;22.53;14.80;;;;;;;6.91;76.85;99983.53;5062303;28;20201;-66
2024/03/16 02:24:27;;;;;;;23.37;15.20;;;;;;;6.87;77.05;99976.69;5062187;28;20731;-65
2024/03/16 02:26:56;;;;;;;25.23;15.57;;;;;;;6.86;77.34;99974.13;5054368;28;20232;-65
2024/03/16 02:29:23;;;;;;;22.47;14.47;;;;;;;6.86;77.45;99976.69;5061098;28;20212;-67
2024/03/16 02:31:52;;;;;;;23.83;15.07;;;;;;;6.85;77.68;99974.97;5064351;28;20274;-66
2024/03/16 02:34:22;;;;;;;25.27;15.43;;;;;;;6.82;77.57;99974.97;5062940;28;20944;-67
2024/03/16 02:36:50;;;;;;;23.80;14.83;;;;;;;6.81;77.25;99971.53;5064107;28;20212;-67
2024/03/16 02:39:19;;;;;;;20.77;14.43;;;;;;;6.80;78.06;99972.41;5059443;28;20225;-65
2024/03/16 02:41:48;;;;;;;22.30;14.67;;;;;;;6.79;77.58;99970.69;5069528;28;20559;-67
2024/03/16 02:44:16;;;;;;;23.80;15.23;;;;;;;6.78;77.27;99967.28;5053788;28;20207;-66
2024/03/16 02:46:44;;;;;;;22.00;14.90;;;;;;;6.78;78.09;99969.84;5061781;28;20247;-66
2024/03/16 02:49:12;;;;;;;25.63;15.37;;;;;;;6.76;77.92;99961.28;5064050;28;20242;-66
2024/03/16 02:51:41;;;;;;;22.57;14.07;;;;;;;6.77;78.19;99963.03;5072944;28;20196;-66
2024/03/16 02:54:10;;;;;;;25.47;15.20;;;;;;;6.78;78.29;99964.72;5062592;28;20205;-66
2024/03/16 02:56:38;;;;;;;25.97;15.77;;;;;;;6.77;77.68;99955.34;5063439;28;20284;-67
2024/03/16 02:59:06;;;;;;;23.10;15.73;;;;;;;6.78;78.34;99958.75;5060316;28;20220;-66
2024/03/16 03:01:35;;;;;;;22.27;14.43;;;;;;;6.79;78.06;99960.44;5055610;28;20213;-65
2024/03/16 03:04:05;;;;;;;23.80;15.70;;;;;;;6.80;78.65;99966.44;5066533;28;20197;-65
2024/03/16 03:06:33;;;;;;;24.90;15.73;;;;;;;6.77;77.80;99957.91;5059938;28;20208;-66
2024/03/16 03:09:01;;;;;;;23.37;15.03;;;;;;;6.78;77.95;99963.88;5059224;28;20287;-66
2024/03/16 03:11:29;;;;;;;23.77;15.73;;;;;;;6.76;77.84;99961.28;5060440;28;20589;-67
2024/03/16 03:13:57;;;;;;;24.60;15.70;;;;;;;6.74;78.82;99960.44;5066000;28;20250;-67
2024/03/16 03:16:25;;;;;;;22.33;14.70;;;;;;;6.76;78.46;99961.28;5062307;28;20197;-65
2024/03/16 03:18:53;;;;;;;24.20;15.53;;;;;;;6.74;78.39;99963.00;5055125;28;20220;-66
2024/03/16 03:21:22;;;;;;;25.70;16.07;;;;;;;6.71;78.07;99965.56;5062850;28;20211;-65
2024/03/16 03:23:50;;;;;;;23.73;15.57;;;;;;;6.68;78.28;99960.41;5056979;28;20200;-66
2024/03/16 03:26:18;;;;;;;23.80;15.57;;;;;;;6.66;78.30;99959.56;5055881;28;20208;-66
2024/03/16 03:28:47;;;;;;;25.30;16.10;;;;;;;6.65;78.85;99951.88;5062741;28;20205;-66
2024/03/16 03:31:15;;;;;;;26.00;15.97;;;;;;;6.63;78.75;99954.44;5055780;28;20197;-67
2024/03/16 03:33:43;;;;;;;23.47;15.90;;;;;;;6.62;79.40;99962.94;5058351;28;20570;-67
2024/03/16 03:36:12;;;;;;;23.03;15.20;;;;;;;6.60;78.83;99944.19;5062298;28;20294;-68
2024/03/16 03:38:40;;;;;;;23.20;14.43;;;;;;;6.59;78.94;99956.97;5059505;28;20295;-66
2024/03/16 03:41:08;;;;;;;23.47;15.27;;;;;;;6.59;79.66;99957.84;5059523;28;20273;-67
2024/03/16 03:43:37;;;;;;;25.27;15.13;;;;;;;6.58;79.11;99958.69;5058374;28;20606;-66
2024/03/16 03:46:12;;;;;;;24.13;16.27;;;;;;;6.59;79.54;99959.53;5060176;28;20978;-66
2024/03/16 03:48:49;;;;;;;26.87;16.20;;;;;;;6.58;79.63;99955.28;5059761;28;20195;-66
2024/03/16 03:51:18;;;;;;;24.90;15.47;;;;;;;6.58;80.01;99951.00;5062216;28;20222;-68
2024/03/16 03:53:47;;;;;;;24.80;15.33;;;;;;;6.62;79.61;99951.88;5059139;28;20236;-67
2024/03/16 03:56:15;;;;;;;24.47;16.50;;;;;;;6.64;79.87;99951.03;5062736;28;20742;-66
2024/03/16 03:58:43;;;;;;;25.73;15.87;;;;;;;6.66;79.89;99945.91;5058879;28;20249;-67
2024/03/16 04:01:11;;;;;;;26.03;16.43;;;;;;;6.68;79.99;99952.75;5060939;28;20729;-65
2024/03/16 04:03:40;;;;;;;24.53;16.40;;;;;;;6.70;79.40;99950.16;5064675;28;20283;-67
2024/03/16 04:06:08;;;;;;;24.40;16.43;;;;;;;6.74;80.00;99955.31;5049008;28;20209;-67
2024/03/16 04:08:36;;;;;;;25.67;15.20;;;;;;;6.77;79.52;99962.16;5058178;28;20201;-64
2024/03/16 04:11:05;;;;;;;24.83;15.27;;;;;;;6.81;79.64;99963.00;5060717;28;20537;-65
2024/03/16 04:13:34;;;;;;;25.27;15.80;;;;;;;6.82;79.16;99972.41;5058354;28;20208;-66
2024/03/16 04:16:02;;;;;;;21.93;15.50;;;;;;;6.82;79.27;99967.31;5059903;28;20196;-67
2024/03/16 04:18:30;;;;;;;24.37;15.63;;;;;;;6.83;79.65;99958.75;5061227;28;20196;-67
2024/03/16 04:20:58;;;;;;;26.60;16.83;;;;;;;6.83;78.86;99958.75;5057868;28;20207;-68
2024/03/16 04:23:26;;;;;;;26.77;16.57;;;;;;;6.84;78.66;99961.31;5062663;28;20208;-66
2024/03/16 04:25:54;;;;;;;26.23;16.83;;;;;;;6.84;79.00;99963.03;5064683;28;20296;-65
2024/03/16 04:28:22;;;;;;;24.40;15.33;;;;;;;6.86;79.05;99961.31;5069517;28;20216;-67
2024/03/16 04:30:51;;;;;;;25.60;16.80;;;;;;;6.85;78.61;99959.59;5055769;28;20213;-66
2024/03/16 04:33:19;;;;;;;28.90;17.00;;;;;;;6.86;79.16;99948.53;5055877;28;20236;-66
2024/03/16 04:35:47;;;;;;;26.27;16.60;;;;;;;6.86;79.10;99946.81;5074113;28;20295;-66
2024/03/16 04:38:17;;;;;;;27.00;16.67;;;;;;;6.87;79.24;99953.63;5060210;28;20679;-67
2024/03/16 04:40:45;;;;;;;27.17;16.00;;;;;;;6.89;79.43;99943.41;5060762;28;20747;-66
2024/03/16 04:43:13;;;;;;;26.57;16.00;;;;;;;6.92;79.46;99951.06;5059629;28;20200;-69
2024/03/16 04:45:41;;;;;;;27.37;17.23;;;;;;;6.91;79.34;99949.38;5057599;28;20215;-66
2024/03/16 04:48:10;;;;;;;27.27;16.20;;;;;;;6.94;78.63;99944.25;5053768;28;20544;-66
2024/03/16 04:50:38;;;;;;;22.87;15.53;;;;;;;6.95;78.88;99948.53;5049977;28;20283;-66
2024/03/16 04:53:07;;;;;;;24.77;16.37;;;;;;;7.00;78.47;99949.41;5060099;28;20200;-66
2024/03/16 04:55:35;;;;;;;27.43;16.73;;;;;;;6.98;79.41;99945.97;5076403;28;20750;-68
2024/03/16 04:58:04;;;;;;;23.30;15.23;;;;;;;7.00;78.36;99946.84;5066509;28;20201;-67
2024/03/16 05:00:32;;;;;;;27.23;17.90;;;;;;;6.97;79.11;99944.28;5058372;28;20213;-66
2024/03/16 05:03:00;;;;;;;26.83;16.47;;;;;;;6.96;78.99;99953.66;5058863;28;20206;-66
2024/03/16 05:05:29;;;;;;;25.97;15.70;;;;;;;6.97;79.66;99954.53;5055524;28;20192;-67
2024/03/16 05:07:56;;;;;;;26.30;16.07;;;;;;;6.98;78.74;99951.09;5056790;28;20287;-67
2024/03/16 05:10:24;;;;;;;27.13;16.33;;;;;;;6.99;78.70;99948.53;5062861;28;20199;-66
2024/03/16 05:12:53;;;;;;;24.87;16.77;;;;;;;7.01;79.48;99954.50;5055238;28;20663;-66
2024/03/16 05:15:21;;;;;;;27.63;16.33;;;;;;;7.03;79.08;99946.81;5057020;28;20565;-66
2024/03/16 05:17:49;;;;;;;27.33;17.20;;;;;;;7.07;78.61;99960.50;5064545;28;20204;-64
2024/03/16 05:20:18;;;;;;;25.80;16.87;;;;;;;7.07;78.38;99961.38;5063125;28;20204;-66
2024/03/16 05:22:48;;;;;;;25.43;16.60;;;;;;;7.08;78.58;99973.31;5056494;28;20208;-65
2024/03/16 05:25:16;;;;;;;26.33;16.50;;;;;;;7.05;78.72;99963.06;5058430;28;20205;-65
2024/03/16 05:27:45;;;;;;;24.43;15.80;;;;;;;7.04;78.83;99966.47;5057553;28;20575;-65
2024/03/16 05:30:15;;;;;;;27.57;17.27;;;;;;;7.03;79.53;99975.00;5054564;28;20529;-65
2024/03/16 05:32:43;;;;;;;26.10;17.10;;;;;;;7.01;79.37;99959.63;5063079;28;20671;-65
2024/03/16 05:35:11;;;;;;;27.53;17.53;;;;;;;7.00;79.49;99957.94;5057831;28;20823;-67
2024/03/16 05:37:39;;;;;;;26.43;16.97;;;;;;;7.04;79.73;99968.19;5065738;28;20551;-67
2024/03/16 05:40:10;;;;;;;25.70;17.57;;;;;;;7.05;78.93;99963.06;5054449;28;20232;-66
2024/03/16 05:42:38;;;;;;;25.03;17.20;;;;;;;7.07;79.43;99971.63;5066371;28;20203;-67
2024/03/16 05:45:07;;;;;;;26.20;16.77;;;;;;;7.10;78.88;99969.03;5057655;28;20254;-66
2024/03/16 05:47:36;;;;;;;30.27;17.90;;;;;;;7.11;79.91;99963.09;5054942;28;20205;-66
2024/03/16 05:50:04;;;;;;;28.83;17.70;;;;;;;7.10;79.99;99963.91;5057542;28;20204;-65
2024/03/16 05:52:33;;;;;;;27.87;16.93;;;;;;;7.11;79.31;99969.91;5060257;28;20220;-67
2024/03/16 05:55:02;;;;;;;29.90;17.60;;;;;;;7.09;79.21;99964.78;5061613;28;20200;-66
2024/03/16 05:57:30;;;;;;;29.63;18.40;;;;;;;7.08;79.86;99975.03;5058251;28;20238;-68
2024/03/16 05:59:58;;;;;;;27.93;18.27;;;;;;;7.04;79.75;99970.75;5056900;28;20262;-66
2024/03/16 06:02:26;;;;;;;26.63;17.23;;;;;;;7.05;80.69;99968.19;5055111;28;20258;-66
2024/03/16 06:04:54;;;;;;;30.27;18.07;;;;;;;7.09;80.12;99971.59;5055487;28;20216;-65
2024/03/16 06:07:22;;;;;;;28.27;17.10;;;;;;;7.12;79.50;99963.94;5059896;28;20239;-66
2024/03/16 06:09:50;;;;;;;27.53;17.77;;;;;;;7.13;80.04;99957.94;5055261;28;20197;-65
2024/03/16 06:12:18;;;;;;;30.87;17.67;;;;;;;7.22;80.09;99965.66;5055118;28;20240;-66
2024/03/16 06:14:47;;;;;;;26.73;17.53;;;;;;;7.29;80.80;99962.25;5056487;28;20721;-66
2024/03/16 06:17:15;;;;;;;27.63;17.00;;;;;;;7.36;81.05;99965.63;5062735;28;20197;-66
2024/03/16 06:19:43;;;;;;;25.57;16.97;;;;;;;7.42;80.10;99969.06;5068553;28;20225;-66
2024/03/16 06:22:11;;;;;;;30.00;17.97;;;;;;;7.46;79.93;99969.91;5061930;28;20200;-65
2024/03/16 06:24:42;;;;;;;26.47;17.13;;;;;;;7.51;79.28;99968.19;5066563;28;20656;-66
2024/03/16 06:27:14;;;;;;;30.60;18.87;;;;;;;7.59;80.04;99965.66;5065523;28;20201;-67
2024/03/16 06:29:47;;;;;;;26.80;16.70;;;;;;;7.62;79.16;99973.31;5067305;28;20209;-65
2024/03/16 06:32:20;;;;;;;29.20;16.80;;;;;;;7.67;78.90;99967.34;5058651;28;20215;-66
2024/03/16 06:34:48;;;;;;;28.80;16.90;;;;;;;7.71;78.91;99974.19;5064329;28;20200;-66
2024/03/16 06:37:17;;;;;;;28.23;17.40;;;;;;;7.75;79.03;99975.88;5067977;28;20231;-67
2024/03/16 06:39:46;;;;;;;26.30;16.97;;;;;;;7.80;78.87;99978.44;5069577;28;20205;-65
2024/03/16 06:42:14;;;;;;;27.50;17.37;;;;;;;7.84;78.56;99980.16;5060283;28;20201;-65
2024/03/16 06:44:42;;;;;;;25.10;16.63;;;;;;;7.89;78.79;99980.16;5053135;28;20245;-65
2024/03/16 06:47:10;;;;;;;25.23;16.33;;;;;;;7.95;79.12;99991.25;5054690;28;20707;-67
2024/03/16 06:49:38;;;;;;;29.03;17.40;;;;;;;7.99;78.91;99980.13;5058686;28;20221;-65
2024/03/16 06:52:07;;;;;;;31.03;16.97;;;;;;;8.05;79.21;99988.66;5059004;28;20204;-68
2024/03/16 06:54:35;;;;;;;24.87;17.13;;;;;;;8.08;78.53;99994.63;5065037;28;20201;-65
2024/03/16 06:57:03;;;;;;;27.50;16.43;;;;;;;8.11;78.93;99992.06;5055665;28;21023;-65
2024/03/16 06:59:31;;;;;;;26.67;16.90;;;;;;;8.15;78.11;99998.06;5060131;28;20915;-67
2024/03/16 07:02:02;;;;;;;28.23;17.57;;;;;;;8.17;78.35;100001.44;5060023;28;20212;-68
2024/03/16 07:04:30;;;;;;;25.13;15.73;;;;;;;8.17;78.77;100001.44;5058544;28;20214;-65
2024/03/16 07:06:59;;;;;;;25.10;16.10;;;;;;;8.20;78.52;100012.56;5063446;28;20291;-66
2024/03/16 07:09:27;;;;;;;27.63;16.37;;;;;;;8.23;78.82;100011.72;5059290;28;20636;-67
2024/03/16 07:11:56;;;;;;;28.40;16.33;;;;;;;8.27;78.86;100010.84;5059314;28;20208;-65
2024/03/16 07:14:24;;;;;;;29.90;17.37;;;;;;;8.30;78.91;100010.84;5062502;28;20570;-65
2024/03/16 07:16:52;;;;;;;26.80;16.23;;;;;;;8.34;78.42;100015.09;5059051;28;20599;-65
2024/03/16 07:19:23;;;;;;;26.37;16.97;;;;;;;8.39;78.45;100020.25;5058595;28;20201;-66
2024/03/16 07:21:51;;;;;;;26.67;16.53;;;;;;;8.43;78.47;100016.81;5053872;28;20679;-66
2024/03/16 07:24:19;;;;;;;27.90;17.17;;;;;;;8.42;77.44;100012.53;5064632;28;20202;-67
2024/03/16 07:26:48;;;;;;;27.57;17.97;;;;;;;8.37;78.04;100024.50;5062914;28;20246;-66
2024/03/16 07:29:16;;;;;;;27.13;16.33;;;;;;;8.35;78.19;100018.53;5058404;28;20205;-66
2024/03/16 07:31:44;;;;;;;25.57;16.93;;;;;;;8.36;78.18;100022.81;5059067;28;20631;-66
2024/03/16 07:34:12;;;;;;;26.73;16.63;;;;;;;8.33;78.96;100018.53;5052744;28;20272;-67
2024/03/16 07:36:40;;;;;;;25.13;16.00;;;;;;;8.35;78.67;100027.06;5059022;28;20730;-66
2024/03/16 07:39:08;;;;;;;26.77;16.17;;;;;;;8.33;78.60;100027.94;5055829;28;20193;-67
2024/03/16 07:41:37;;;;;;;27.00;16.47;;;;;;;8.29;78.90;100028.81;5064111;28;20228;-66
2024/03/16 07:44:05;;;;;;;27.47;17.27;;;;;;;8.28;78.73;100034.78;5057730;28;20719;-65
2024/03/16 07:46:35;;;;;;;29.43;18.03;;;;;;;8.24;79.49;100028.81;5058202;28;20200;-66
2024/03/16 07:49:04;;;;;;;28.30;17.60;;;;;;;8.23;79.65;100032.25;5063068;28;20205;-66
2024/03/16 07:51:36;;;;;;;27.40;17.63;;;;;;;8.26;80.22;100036.53;5056999;28;20193;-67
2024/03/16 07:54:08;;;;;;;29.60;16.57;;;;;;;8.25;80.24;100033.09;5055625;28;20201;-66
2024/03/16 07:56:37;;;;;;;30.60;18.37;;;;;;;8.30;81.19;100033.94;5045279;28;20236;-69
2024/03/16 07:59:05;;;;;;;23.17;16.43;;;;;;;8.34;80.87;100039.94;5058473;28;20205;-67
2024/03/16 08:01:36;;;;;;;28.63;16.63;;;;;;;8.42;81.74;100039.06;5058156;28;20216;-68
2024/03/16 08:04:05;;;;;;;28.37;16.80;;;;;;;8.50;81.96;100035.63;5043212;28;20262;-69
2024/03/16 08:06:33;;;;;;;29.47;16.90;;;;;;;8.60;81.61;100038.16;5038387;28;20267;-70
2024/03/16 08:09:01;;;;;;;25.93;17.33;;;;;;;8.69;82.08;100035.56;5047659;28;20219;-69
2024/03/16 08:11:31;;;;;;;29.77;18.03;;;;;;;8.75;81.86;100031.25;5061564;28;20626;-70
2024/03/16 08:13:59;;;;;;;27.40;17.60;;;;;;;8.79;82.27;100040.66;5057431;28;20201;-67
2024/03/16 08:16:26;;;;;;;28.07;18.07;;;;;;;8.76;82.19;100038.09;5053527;28;20580;-72
2024/03/16 08:18:54;;;;;;;30.47;18.33;;;;;;;8.73;82.60;100031.28;5057526;28;20204;-68
2024/03/16 08:21:22;;;;;;;27.03;17.47;;;;;;;8.75;83.21;100026.13;5057235;28;20216;-71
2024/03/16 08:23:50;;;;;;;24.10;16.40;;;;;;;8.76;83.81;100035.53;5053030;28;20212;-68
2024/03/16 08:26:18;;;;;;;25.97;16.40;;;;;;;8.80;84.22;100040.66;5059574;28;20675;-71
2024/03/16 08:28:46;;;;;;;28.20;18.20;;;;;;;8.80;84.40;100035.53;5059021;28;20666;-72
2024/03/16 08:31:14;;;;;;;26.90;16.50;;;;;;;8.82;85.37;100027.78;5064966;28;20206;-72
2024/03/16 08:33:43;;;;;;;25.87;17.27;;;;;;;8.87;85.68;100037.22;5053443;28;20589;-69
2024/03/16 08:36:11;;;;;;;26.87;17.53;;;;;;;8.91;85.80;100030.31;5059944;28;20200;-69
2024/03/16 08:38:39;;;;;;;26.37;17.80;;;;;;;9.01;86.12;100020.84;5060654;28;20217;-69
2024/03/16 08:41:07;;;;;;;29.93;17.83;;;;;;;9.11;86.37;100025.06;5057351;28;20217;-71
2024/03/16 08:43:35;;;;;;;27.07;16.80;;;;;;;9.25;86.47;100031.00;5058594;28;20204;-68
2024/03/16 08:46:06;;;;;;;25.87;15.67;;;;;;;9.31;86.66;100025.78;5058929;28;20647;-71
2024/03/16 08:48:34;;;;;;;25.83;17.27;;;;;;;9.38;87.10;100024.03;5059670;28;20322;-66
2024/03/16 08:51:04;;;;;;;23.43;16.70;;;;;;;9.43;87.44;100027.44;5055723;28;20246;-70
2024/03/16 08:53:32;;;;;;;27.07;17.27;;;;;;;9.54;87.97;100027.38;5059768;28;20892;-72
2024/03/16 08:56:03;;;;;;;23.73;17.27;;;;;;;9.63;88.19;100022.97;5058292;28;20610;-68
2024/03/16 08:58:33;;;;;;;26.37;17.40;;;;;;;9.75;88.04;100029.75;5048053;28;20205;-70
2024/03/16 09:01:01;;;;;;;27.90;19.10;;;;;;;9.79;88.05;100026.28;5057570;28;20208;-71
2024/03/16 09:03:29;;;;;;;26.80;17.17;;;;;;;9.87;88.41;100028.81;5053577;28;20597;-72
2024/03/16 09:05:58;;;;;;;22.77;16.77;;;;;;;9.87;88.53;100028.81;5082280;28;20593;-71
2024/03/16 09:08:27;;;;;;;26.97;17.37;;;;;;;9.87;89.06;100028.81;5055915;28;20254;-70
2024/03/16 09:10:55;;;;;;;27.27;17.07;;;;;;;9.85;89.87;100022.81;5064446;28;20229;-71
2024/03/16 09:13:24;;;;;;;23.37;16.47;;;;;;;9.86;90.27;100019.34;5063942;28;20205;-70
2024/03/16 09:15:52;;;;;;;24.90;16.57;;;;;;;9.90;90.93;100024.50;5057655;28;20686;-71
2024/03/16 09:18:20;;;;;;;25.70;17.03;;;;;;;9.92;90.87;100027.88;5057963;28;20833;-69
2024/03/16 09:20:48;;;;;;;28.73;16.80;;;;;;;9.97;91.76;100030.41;5056820;28;20208;-73
2024/03/16 09:23:16;;;;;;;25.77;16.50;;;;;;;10.00;91.84;100035.53;5063096;28;20208;-71
2024/03/16 09:25:44;;;;;;;21.13;16.27;;;;;;;10.05;92.41;100023.50;5059172;28;20208;-74
2024/03/16 09:28:14;;;;;;;23.53;16.30;;;;;;;10.09;92.48;100014.00;5058317;28;20288;-71
2024/03/16 09:30:44;;;;;;;29.90;16.67;;;;;;;10.18;92.82;100023.34;5055790;28;20211;-72
2024/03/16 09:33:13;;;;;;;25.73;17.50;;;;;;;10.23;92.75;100021.56;5055907;28;20245;-73
2024/03/16 09:35:42;;;;;;;24.33;17.63;;;;;;;10.22;92.98;100025.88;5057807;28;20268;-73
2024/03/16 09:38:12;;;;;;;26.13;16.80;;;;;;;10.19;93.29;100019.91;5061811;28;20206;-73
2024/03/16 09:40:43;;;;;;;24.93;17.33;;;;;;;10.19;93.63;100025.06;5055594;28;20208;-66
2024/03/16 09:43:11;;;;;;;28.13;18.67;;;;;;;10.15;93.58;100025.06;5062974;28;20211;-66
2024/03/16 09:45:39;;;;;;;28.83;18.00;;;;;;;10.10;94.12;100020.84;5045890;28;20213;-65
2024/03/16 09:48:06;;;;;;;27.93;17.90;;;;;;;10.05;94.66;100033.78;5049065;28;20553;-66
2024/03/16 09:50:33;;;;;;;27.43;17.57;;;;;;;10.02;95.15;100027.81;5047449;28;20201;-68
2024/03/16 09:53:00;;;;;;;29.60;18.97;;;;;;;9.98;95.60;100034.72;5060977;28;20211;-66
2024/03/16 09:55:27;;;;;;;28.70;18.77;;;;;;;9.98;96.17;100028.69;5039769;28;20248;-65
2024/03/16 09:57:54;;;;;;;25.43;17.67;;;;;;;9.98;96.36;100031.25;5043491;28;20216;-66
2024/03/16 10:00:22;;;;;;;30.57;20.10;;;;;;;9.98;96.58;100027.00;5063367;28;20220;-67
2024/03/16 10:02:50;;;;;;;27.93;19.23;;;;;;;10.01;97.12;100032.06;5057981;28;20220;-64
2024/03/16 10:05:18;;;;;;;28.73;19.90;;;;;;;10.03;96.72;100029.50;5040191;28;20212;-63
2024/03/16 10:07:45;;;;;;;29.83;20.10;;;;;;;10.02;97.33;100022.66;5043066;28;20687;-65
2024/03/16 10:10:15;;;;;;;28.37;19.63;;;;;;;10.07;97.53;100019.16;5038542;28;20253;-64
2024/03/16 10:12:42;;;;;;;26.43;18.83;;;;;;;10.11;97.76;100017.41;5064826;28;20204;-63
2024/03/16 10:15:16;;;;;;;24.87;17.73;;;;;;;10.17;98.83;100007.06;5065712;28;20209;-65
2024/03/16 10:17:43;;;;;;;29.10;19.50;;;;;;;10.26;98.02;100000.97;5062539;28;20234;-64
2024/03/16 10:20:15;;;;;;;27.47;18.80;;;;;;;10.36;97.83;100002.59;5058993;28;20215;-63
2024/03/16 10:22:45;;;;;;;27.77;19.13;;;;;;;10.48;97.69;100001.59;5058225;28;20613;-66
2024/03/16 10:25:12;;;;;;;28.10;19.30;;;;;;;10.69;97.40;99995.31;5039416;28;20202;-65
2024/03/16 10:27:39;;;;;;;25.00;17.50;;;;;;;10.97;97.64;100001.81;5040864;28;20278;-66
2024/03/16 10:30:10;;;;;;;25.23;18.07;;;;;;;11.27;96.59;100012.56;5043594;28;20208;-66
2024/03/16 10:32:38;;;;;;;26.87;18.53;;;;;;;11.42;92.69;100022.66;5043102;28;20354;-65
2024/03/16 10:35:07;;;;;;;25.37;16.87;;;;;;;11.54;91.91;100024.19;5059360;28;20204;-66
2024/03/16 10:37:35;;;;;;;28.13;16.80;;;;;;;11.68;91.52;100016.22;5059771;28;20737;-67
2024/03/16 10:40:13;;;;;;;30.00;19.43;;;;;;;11.86;91.46;100008.19;5059576;28;20213;-62
2024/03/16 10:42:45;;;;;;;29.77;18.50;;;;;;;12.00;90.11;100007.94;5061291;28;20235;-66
2024/03/16 10:45:16;;;;;;;26.57;17.77;;;;;;;12.13;89.89;100008.59;5062969;28;20215;-64
2024/03/16 10:47:47;;;;;;;25.40;17.53;;;;;;;12.30;89.34;100006.53;5034012;28;20209;-63
2024/03/16 10:50:14;;;;;;;23.23;17.53;;;;;;;12.57;89.58;100003.41;5045938;28;20216;-60
2024/03/16 10:52:43;;;;;;;24.30;16.37;;;;;;;12.88;88.51;100000.16;5063312;28;20211;-63
2024/03/16 10:55:11;;;;;;;23.07;16.03;;;;;;;13.20;86.89;100004.63;5042154;28;20217;-63
2024/03/16 10:57:38;;;;;;;22.47;16.03;;;;;;;13.36;83.82;99999.97;5065549;28;20240;-64
2024/03/16 11:00:12;;;;;;;21.33;15.33;;;;;;;13.42;82.92;99997.22;5058383;28;20219;-64
2024/03/16 11:02:49;;;;;;;21.87;16.10;;;;;;;13.61;83.20;100008.00;5040006;28;20273;-64
2024/03/16 11:05:33;;;;;;;21.27;15.77;;;;;;;13.83;82.71;100000.53;5057673;28;20216;-64
2024/03/16 11:08:00;;;;;;;20.50;15.17;;;;;;;14.07;81.79;99995.63;5058810;28;20212;-62
2024/03/16 11:10:37;;;;;;;21.77;15.60;;;;;;;14.33;80.72;99993.16;5053474;28;20208;-61
2024/03/16 11:13:11;;;;;;;19.07;14.77;;;;;;;14.49;79.85;99990.97;5029977;28;20667;-64
2024/03/16 11:15:40;;;;;;;22.47;15.23;;;;;;;14.59;78.54;99989.03;5037856;28;21315;-61
2024/03/16 11:18:53;;;;;;;19.57;14.63;;;;;;;14.70;76.64;99986.97;5032632;28;20244;-62
2024/03/16 11:21:23;;;;;;;16.45;13.82;;;;;;;14.68;76.10;99983.56;5067220;28;20205;-62
2024/03/16 11:23:51;;;;;;;17.67;13.77;;;;;;;14.67;76.50;99987.03;5054415;28;20236;-62
2024/03/16 11:26:31;;;;;;;19.40;12.90;;;;;;;14.72;76.64;99982.56;5037287;28;20220;-62